sensor_id;sensor_type;location;lat;lon;timestamp;temperature;humidity
16867;DHT22;8550;52.596;13.320;2022-10-31T00:04:24;10.90;99.90
16867;DHT22;8550;52.596;13.320;2022-10-31T00:09:26;10.80;99.90
16867;DHT22;8550;52.596;13.320;2022-10-31T00:14:27;10.80;99.90
16867;DHT22;8550;52.596;13.320;2022-10-31T00:19:31;10.80;99.90
16867;DHT22;8550;52.596;13.320;2022-10-31T00:24:32;10.80;99.90
16867;DHT22;8550;52.596;13.320;2022-10-31T00:29:34;10.70;99.90
16867;DHT22;8550;52.596;13.320;2022-10-31T00:34:37;10.70;99.90
16867;DHT22;8550;52.596;13.320;2022-10-31T00:39:39;10.60;99.90
16867;DHT22;8550;52.596;13.320;2022-10-31T00:44:42;10.60;99.90
16867;DHT22;8550;52.596;13.320;2022-10-31T00:49:45;10.60;99.90
16867;DHT22;8550;52.596;13.320;2022-10-31T00:54:48;10.60;99.90
16867;DHT22;8550;52.596;13.320;2022-10-31T00:59:50;10.50;99.90
16867;DHT22;8550;52.596;13.320;2022-10-31T01:04:53;10.50;99.90
16867;DHT22;8550;52.596;13.320;2022-10-31T01:09:55;10.50;99.90
16867;DHT22;8550;52.596;13.320;2022-10-31T01:14:56;10.30;99.90
16867;DHT22;8550;52.596;13.320;2022-10-31T01:19:59;10.40;99.90
16867;DHT22;8550;52.596;13.320;2022-10-31T01:25:01;10.40;99.90
16867;DHT22;8550;52.596;13.320;2022-10-31T01:30:04;10.40;99.90
16867;DHT22;8550;52.596;13.320;2022-10-31T01:35:08;10.30;99.90
16867;DHT22;8550;52.596;13.320;2022-10-31T01:40:10;10.20;99.90
16867;DHT22;8550;52.596;13.320;2022-10-31T01:45:14;10.30;99.90
16867;DHT22;8550;52.596;13.320;2022-10-31T01:50:26;10.30;99.90
16867;DHT22;8550;52.596;13.320;2022-10-31T01:55:33;10.30;99.90
16867;DHT22;8550;52.596;13.320;2022-10-31T02:00:36;10.30;99.90
16867;DHT22;8550;52.596;13.320;2022-10-31T02:05:41;10.30;99.90
16867;DHT22;8550;52.596;13.320;2022-10-31T02:10:44;10.20;99.90
16867;DHT22;8550;52.596;13.320;2022-10-31T02:15:49;10.20;99.90
16867;DHT22;8550;52.596;13.320;2022-10-31T02:21:00;10.30;99.90
16867;DHT22;8550;52.596;13.320;2022-10-31T02:26:21;10.30;99.90
16867;DHT22;8550;52.596;13.320;2022-10-31T02:31:32;10.20;99.90
16867;DHT22;8550;52.596;13.320;2022-10-31T02:36:41;10.30;99.90
16867;DHT22;8550;52.596;13.320;2022-10-31T02:41:50;10.20;99.90
16867;DHT22;8550;52.596;13.320;2022-10-31T02:46:59;10.20;99.90
16867;DHT22;8550;52.596;13.320;2022-10-31T02:52:13;10.10;99.90
16867;DHT22;8550;52.596;13.320;2022-10-31T02:57:17;10.10;99.90
16867;DHT22;8550;52.596;13.320;2022-10-31T03:02:31;10.10;99.90
16867;DHT22;8550;52.596;13.320;2022-10-31T03:07:42;10.00;99.90
16867;DHT22;8550;52.596;13.320;2022-10-31T03:12:54;10.00;99.90
16867;DHT22;8550;52.596;13.320;2022-10-31T03:18:04;10.00;99.90
16867;DHT22;8550;52.596;13.320;2022-10-31T03:23:13;10.00;99.90
16867;DHT22;8550;52.596;13.320;2022-10-31T03:28:17;9.90;99.90
16867;DHT22;8550;52.596;13.320;2022-10-31T03:33:24;9.90;99.90
16867;DHT22;8550;52.596;13.320;2022-10-31T03:38:28;9.80;99.90
16867;DHT22;8550;52.596;13.320;2022-10-31T03:43:35;9.80;99.90
16867;DHT22;8550;52.596;13.320;2022-10-31T03:48:40;9.90;99.90
16867;DHT22;8550;52.596;13.320;2022-10-31T03:53:47;9.80;99.90
16867;DHT22;8550;52.596;13.320;2022-10-31T03:58:57;9.90;99.90
16867;DHT22;8550;52.596;13.320;2022-10-31T04:04:05;9.90;99.90
16867;DHT22;8550;52.596;13.320;2022-10-31T04:09:09;10.00;99.90
16867;DHT22;8550;52.596;13.320;2022-10-31T04:14:15;10.00;99.90
16867;DHT22;8550;52.596;13.320;2022-10-31T04:19:19;9.90;99.90
16867;DHT22;8550;52.596;13.320;2022-10-31T04:24:22;10.00;99.90
16867;DHT22;8550;52.596;13.320;2022-10-31T04:29:23;9.90;99.90
16867;DHT22;8550;52.596;13.320;2022-10-31T04:34:26;9.90;99.90
16867;DHT22;8550;52.596;13.320;2022-10-31T04:39:28;9.90;99.90
16867;DHT22;8550;52.596;13.320;2022-10-31T04:44:30;9.90;99.90
16867;DHT22;8550;52.596;13.320;2022-10-31T04:49:33;9.80;99.90
16867;DHT22;8550;52.596;13.320;2022-10-31T04:54:35;9.80;99.90
16867;DHT22;8550;52.596;13.320;2022-10-31T04:59:38;9.80;99.90
16867;DHT22;8550;52.596;13.320;2022-10-31T05:04:42;9.80;99.90
16867;DHT22;8550;52.596;13.320;2022-10-31T05:09:45;9.80;99.90
16867;DHT22;8550;52.596;13.320;2022-10-31T05:14:47;9.80;99.90
16867;DHT22;8550;52.596;13.320;2022-10-31T05:19:53;9.70;99.90
16867;DHT22;8550;52.596;13.320;2022-10-31T05:24:55;9.70;99.90
16867;DHT22;8550;52.596;13.320;2022-10-31T05:29:57;9.60;99.90
16867;DHT22;8550;52.596;13.320;2022-10-31T05:35:00;9.60;99.90
16867;DHT22;8550;52.596;13.320;2022-10-31T05:40:03;9.60;99.90
16867;DHT22;8550;52.596;13.320;2022-10-31T05:45:07;9.60;99.90
16867;DHT22;8550;52.596;13.320;2022-10-31T05:50:10;9.60;99.90
16867;DHT22;8550;52.596;13.320;2022-10-31T05:55:12;9.60;99.90
16867;DHT22;8550;52.596;13.320;2022-10-31T06:00:16;9.70;99.90
16867;DHT22;8550;52.596;13.320;2022-10-31T06:05:20;9.70;99.90
16867;DHT22;8550;52.596;13.320;2022-10-31T06:10:22;9.60;99.90
16867;DHT22;8550;52.596;13.320;2022-10-31T06:15:24;9.70;99.90
16867;DHT22;8550;52.596;13.320;2022-10-31T06:20:28;9.80;99.90
16867;DHT22;8550;52.596;13.320;2022-10-31T06:25:30;9.80;99.90
16867;DHT22;8550;52.596;13.320;2022-10-31T06:30:33;9.90;99.90
16867;DHT22;8550;52.596;13.320;2022-10-31T06:35:36;10.10;99.90
16867;DHT22;8550;52.596;13.320;2022-10-31T06:40:39;10.10;99.90
16867;DHT22;8550;52.596;13.320;2022-10-31T06:45:43;10.20;99.90
16867;DHT22;8550;52.596;13.320;2022-10-31T06:50:46;10.40;99.90
16867;DHT22;8550;52.596;13.320;2022-10-31T06:55:48;10.50;99.90
16867;DHT22;8550;52.596;13.320;2022-10-31T07:00:51;10.70;99.90
16867;DHT22;8550;52.596;13.320;2022-10-31T07:05:56;11.20;99.90
16867;DHT22;8550;52.596;13.320;2022-10-31T07:10:57;11.60;99.90
16867;DHT22;8550;52.596;13.320;2022-10-31T07:16:01;11.90;99.90
16867;DHT22;8550;52.596;13.320;2022-10-31T07:21:05;12.20;99.90
16867;DHT22;8550;52.596;13.320;2022-10-31T07:26:08;12.50;99.90
16867;DHT22;8550;52.596;13.320;2022-10-31T07:31:10;12.80;99.90
16867;DHT22;8550;52.596;13.320;2022-10-31T07:36:14;12.90;99.90
16867;DHT22;8550;52.596;13.320;2022-10-31T07:41:16;13.00;99.90
16867;DHT22;8550;52.596;13.320;2022-10-31T07:46:17;13.10;99.90
16867;DHT22;8550;52.596;13.320;2022-10-31T07:51:22;13.00;99.90
16867;DHT22;8550;52.596;13.320;2022-10-31T07:56:24;13.00;99.90
16867;DHT22;8550;52.596;13.320;2022-10-31T08:01:26;13.00;99.90
16867;DHT22;8550;52.596;13.320;2022-10-31T08:06:29;13.00;99.90
16867;DHT22;8550;52.596;13.320;2022-10-31T08:11:31;13.00;99.90
16867;DHT22;8550;52.596;13.320;2022-10-31T08:16:33;13.00;99.90
16867;DHT22;8550;52.596;13.320;2022-10-31T08:21:36;13.00;99.90
16867;DHT22;8550;52.596;13.320;2022-10-31T08:26:38;13.00;99.90
16867;DHT22;8550;52.596;13.320;2022-10-31T08:31:40;13.00;99.90
16867;DHT22;8550;52.596;13.320;2022-10-31T08:36:43;13.00;99.90
16867;DHT22;8550;52.596;13.320;2022-10-31T08:41:47;13.00;99.90
16867;DHT22;8550;52.596;13.320;2022-10-31T08:46:49;13.10;99.90
16867;DHT22;8550;52.596;13.320;2022-10-31T08:51:52;13.30;99.90
16867;DHT22;8550;52.596;13.320;2022-10-31T08:56:54;13.70;99.90
16867;DHT22;8550;52.596;13.320;2022-10-31T09:01:56;13.90;99.90
16867;DHT22;8550;52.596;13.320;2022-10-31T09:06:59;14.00;99.90
16867;DHT22;8550;52.596;13.320;2022-10-31T09:12:01;14.30;99.90
16867;DHT22;8550;52.596;13.320;2022-10-31T09:17:03;14.50;99.90
16867;DHT22;8550;52.596;13.320;2022-10-31T09:22:06;14.50;99.90
16867;DHT22;8550;52.596;13.320;2022-10-31T09:27:08;14.50;99.90
16867;DHT22;8550;52.596;13.320;2022-10-31T09:32:09;14.60;99.90
16867;DHT22;8550;52.596;13.320;2022-10-31T09:37:13;14.80;99.90
16867;DHT22;8550;52.596;13.320;2022-10-31T09:42:33;15.10;99.90
16867;DHT22;8550;52.596;13.320;2022-10-31T09:47:44;15.20;99.90
16867;DHT22;8550;52.596;13.320;2022-10-31T09:52:58;15.40;99.90
16867;DHT22;8550;52.596;13.320;2022-10-31T09:58:03;15.40;99.90
16867;DHT22;8550;52.596;13.320;2022-10-31T10:03:12;15.90;99.90
16867;DHT22;8550;52.596;13.320;2022-10-31T10:08:22;16.20;99.90
16867;DHT22;8550;52.596;13.320;2022-10-31T10:13:41;16.70;99.90
16867;DHT22;8550;52.596;13.320;2022-10-31T10:18:56;17.00;99.90
16867;DHT22;8550;52.596;13.320;2022-10-31T10:24:12;17.50;99.90
16867;DHT22;8550;52.596;13.320;2022-10-31T10:29:31;17.90;99.90
16867;DHT22;8550;52.596;13.320;2022-10-31T10:34:37;18.10;99.90
16867;DHT22;8550;52.596;13.320;2022-10-31T10:39:44;18.40;99.90
16867;DHT22;8550;52.596;13.320;2022-10-31T10:44:48;18.70;99.90
16867;DHT22;8550;52.596;13.320;2022-10-31T10:50:14;19.00;99.90
16867;DHT22;8550;52.596;13.320;2022-10-31T10:55:25;19.80;99.90
16867;DHT22;8550;52.596;13.320;2022-10-31T11:00:30;20.10;99.90
16867;DHT22;8550;52.596;13.320;2022-10-31T11:05:36;20.60;99.90
16867;DHT22;8550;52.596;13.320;2022-10-31T11:10:39;20.80;99.90
16867;DHT22;8550;52.596;13.320;2022-10-31T11:15:51;21.30;99.90
16867;DHT22;8550;52.596;13.320;2022-10-31T11:20:56;21.40;99.90
16867;DHT22;8550;52.596;13.320;2022-10-31T11:26:02;21.10;99.90
16867;DHT22;8550;52.596;13.320;2022-10-31T11:31:07;21.80;99.90
16867;DHT22;8550;52.596;13.320;2022-10-31T11:36:16;22.20;99.90
16867;DHT22;8550;52.596;13.320;2022-10-31T11:41:26;22.40;99.90
16867;DHT22;8550;52.596;13.320;2022-10-31T11:46:33;21.10;99.90
16867;DHT22;8550;52.596;13.320;2022-10-31T11:51:36;20.00;99.90
16867;DHT22;8550;52.596;13.320;2022-10-31T11:56:41;19.90;99.90
16867;DHT22;8550;52.596;13.320;2022-10-31T12:01:47;19.60;99.90
16867;DHT22;8550;52.596;13.320;2022-10-31T12:06:49;19.10;99.90
16867;DHT22;8550;52.596;13.320;2022-10-31T12:12:31;19.10;99.90
16867;DHT22;8550;52.596;13.320;2022-10-31T12:17:41;19.20;99.90
16867;DHT22;8550;52.596;13.320;2022-10-31T12:22:50;19.10;99.90
16867;DHT22;8550;52.596;13.320;2022-10-31T12:28:18;18.90;99.90
16867;DHT22;8550;52.596;13.320;2022-10-31T12:33:39;19.20;99.90
16867;DHT22;8550;52.596;13.320;2022-10-31T12:38:56;19.30;99.90
16867;DHT22;8550;52.596;13.320;2022-10-31T12:44:06;19.30;99.90
16867;DHT22;8550;52.596;13.320;2022-10-31T12:49:26;19.30;99.90
16867;DHT22;8550;52.596;13.320;2022-10-31T12:54:42;19.50;99.90
16867;DHT22;8550;52.596;13.320;2022-10-31T12:59:50;19.60;99.90
16867;DHT22;8550;52.596;13.320;2022-10-31T13:04:55;19.50;99.90
16867;DHT22;8550;52.596;13.320;2022-10-31T13:10:01;19.70;99.90
16867;DHT22;8550;52.596;13.320;2022-10-31T13:15:16;19.30;99.90
16867;DHT22;8550;52.596;13.320;2022-10-31T13:20:25;19.20;99.90
16867;DHT22;8550;52.596;13.320;2022-10-31T13:25:31;18.80;99.90
16867;DHT22;8550;52.596;13.320;2022-10-31T13:30:38;18.70;99.90
16867;DHT22;8550;52.596;13.320;2022-10-31T13:35:46;19.00;99.90
16867;DHT22;8550;52.596;13.320;2022-10-31T13:40:54;19.10;99.90
16867;DHT22;8550;52.596;13.320;2022-10-31T13:45:58;18.70;99.90
16867;DHT22;8550;52.596;13.320;2022-10-31T13:51:01;18.60;99.90
16867;DHT22;8550;52.596;13.320;2022-10-31T13:56:14;18.10;99.90
16867;DHT22;8550;52.596;13.320;2022-10-31T14:01:20;17.60;99.90
16867;DHT22;8550;52.596;13.320;2022-10-31T14:06:23;17.80;99.90
16867;DHT22;8550;52.596;13.320;2022-10-31T14:11:45;17.60;99.90
16867;DHT22;8550;52.596;13.320;2022-10-31T14:16:54;17.20;99.90
16867;DHT22;8550;52.596;13.320;2022-10-31T14:21:56;16.80;99.90
16867;DHT22;8550;52.596;13.320;2022-10-31T14:27:02;16.40;99.90
16867;DHT22;8550;52.596;13.320;2022-10-31T14:32:13;16.20;99.90
16867;DHT22;8550;52.596;13.320;2022-10-31T14:37:41;16.20;99.90
16867;DHT22;8550;52.596;13.320;2022-10-31T14:48:35;15.80;99.90
16867;DHT22;8550;52.596;13.320;2022-10-31T14:53:45;15.70;99.90
16867;DHT22;8550;52.596;13.320;2022-10-31T14:58:48;15.70;99.90
16867;DHT22;8550;52.596;13.320;2022-10-31T15:03:52;15.50;99.90
16867;DHT22;8550;52.596;13.320;2022-10-31T15:08:54;15.40;99.90
16867;DHT22;8550;52.596;13.320;2022-10-31T15:13:58;15.50;99.90
16867;DHT22;8550;52.596;13.320;2022-10-31T15:19:03;15.40;99.90
16867;DHT22;8550;52.596;13.320;2022-10-31T15:24:10;15.20;99.90
16867;DHT22;8550;52.596;13.320;2022-10-31T15:29:14;15.10;99.90
16867;DHT22;8550;52.596;13.320;2022-10-31T15:34:20;15.10;99.90
16867;DHT22;8550;52.596;13.320;2022-10-31T15:39:23;15.20;99.90
16867;DHT22;8550;52.596;13.320;2022-10-31T15:44:28;15.00;99.90
16867;DHT22;8550;52.596;13.320;2022-10-31T15:49:38;15.00;99.90
16867;DHT22;8550;52.596;13.320;2022-10-31T15:54:46;14.80;99.90
16867;DHT22;8550;52.596;13.320;2022-10-31T15:59:49;14.60;99.90
16867;DHT22;8550;52.596;13.320;2022-10-31T16:04:55;14.30;99.90
16867;DHT22;8550;52.596;13.320;2022-10-31T16:09:58;14.30;99.90
16867;DHT22;8550;52.596;13.320;2022-10-31T16:15:00;14.20;99.90
16867;DHT22;8550;52.596;13.320;2022-10-31T16:20:05;14.10;99.90
16867;DHT22;8550;52.596;13.320;2022-10-31T16:25:11;14.20;99.90
16867;DHT22;8550;52.596;13.320;2022-10-31T16:30:39;14.30;99.90
16867;DHT22;8550;52.596;13.320;2022-10-31T16:35:43;14.30;99.90
16867;DHT22;8550;52.596;13.320;2022-10-31T16:40:45;14.20;99.90
16867;DHT22;8550;52.596;13.320;2022-10-31T16:45:48;14.50;99.90
16867;DHT22;8550;52.596;13.320;2022-10-31T16:50:54;14.60;99.90
16867;DHT22;8550;52.596;13.320;2022-10-31T16:55:57;14.60;99.90
16867;DHT22;8550;52.596;13.320;2022-10-31T17:01:01;14.60;99.90
16867;DHT22;8550;52.596;13.320;2022-10-31T17:06:05;14.40;99.90
16867;DHT22;8550;52.596;13.320;2022-10-31T17:11:11;14.40;99.90
16867;DHT22;8550;52.596;13.320;2022-10-31T17:16:15;14.30;99.90
16867;DHT22;8550;52.596;13.320;2022-10-31T17:21:20;14.10;99.90
16867;DHT22;8550;52.596;13.320;2022-10-31T17:26:23;13.90;99.90
16867;DHT22;8550;52.596;13.320;2022-10-31T17:31:29;13.90;99.90
16867;DHT22;8550;52.596;13.320;2022-10-31T17:36:34;13.80;99.90
16867;DHT22;8550;52.596;13.320;2022-10-31T17:41:36;13.80;99.90
16867;DHT22;8550;52.596;13.320;2022-10-31T17:46:38;13.70;99.90
16867;DHT22;8550;52.596;13.320;2022-10-31T17:51:41;13.70;99.90
16867;DHT22;8550;52.596;13.320;2022-10-31T17:56:43;13.60;99.90
16867;DHT22;8550;52.596;13.320;2022-10-31T18:01:44;13.60;99.90
16867;DHT22;8550;52.596;13.320;2022-10-31T18:06:48;13.60;99.90
16867;DHT22;8550;52.596;13.320;2022-10-31T18:11:50;13.60;99.90
16867;DHT22;8550;52.596;13.320;2022-10-31T18:16:52;13.60;99.90
16867;DHT22;8550;52.596;13.320;2022-10-31T18:21:55;13.60;99.90
16867;DHT22;8550;52.596;13.320;2022-10-31T18:26:56;13.70;99.90
16867;DHT22;8550;52.596;13.320;2022-10-31T18:31:58;13.70;99.90
16867;DHT22;8550;52.596;13.320;2022-10-31T18:37:01;13.70;99.90
16867;DHT22;8550;52.596;13.320;2022-10-31T18:42:03;13.70;99.90
16867;DHT22;8550;52.596;13.320;2022-10-31T18:47:05;13.70;99.90
16867;DHT22;8550;52.596;13.320;2022-10-31T18:52:08;13.70;99.90
16867;DHT22;8550;52.596;13.320;2022-10-31T18:57:12;13.70;99.90
16867;DHT22;8550;52.596;13.320;2022-10-31T19:02:14;13.70;99.90
16867;DHT22;8550;52.596;13.320;2022-10-31T19:07:19;13.60;99.90
16867;DHT22;8550;52.596;13.320;2022-10-31T19:12:21;13.70;99.90
16867;DHT22;8550;52.596;13.320;2022-10-31T19:17:23;13.70;99.90
16867;DHT22;8550;52.596;13.320;2022-10-31T19:22:29;13.60;99.90
16867;DHT22;8550;52.596;13.320;2022-10-31T19:27:31;13.60;99.90
16867;DHT22;8550;52.596;13.320;2022-10-31T19:32:33;13.60;99.90
16867;DHT22;8550;52.596;13.320;2022-10-31T19:37:38;13.70;99.90
16867;DHT22;8550;52.596;13.320;2022-10-31T19:42:40;13.80;99.90
16867;DHT22;8550;52.596;13.320;2022-10-31T19:47:42;13.80;99.90
16867;DHT22;8550;52.596;13.320;2022-10-31T19:52:45;13.70;99.90
16867;DHT22;8550;52.596;13.320;2022-10-31T19:57:47;13.70;99.90
16867;DHT22;8550;52.596;13.320;2022-10-31T20:02:49;13.70;99.90
16867;DHT22;8550;52.596;13.320;2022-10-31T20:07:54;13.70;99.90
16867;DHT22;8550;52.596;13.320;2022-10-31T20:12:56;13.60;99.90
16867;DHT22;8550;52.596;13.320;2022-10-31T20:17:58;13.70;99.90
16867;DHT22;8550;52.596;13.320;2022-10-31T20:23:02;13.70;99.90
16867;DHT22;8550;52.596;13.320;2022-10-31T20:28:04;13.60;99.90
16867;DHT22;8550;52.596;13.320;2022-10-31T20:33:06;13.60;99.90
16867;DHT22;8550;52.596;13.320;2022-10-31T20:38:11;13.50;99.90
16867;DHT22;8550;52.596;13.320;2022-10-31T20:43:14;13.60;99.90
16867;DHT22;8550;52.596;13.320;2022-10-31T20:48:16;13.50;99.90
16867;DHT22;8550;52.596;13.320;2022-10-31T20:53:20;13.40;99.90
16867;DHT22;8550;52.596;13.320;2022-10-31T20:58:23;13.50;99.90
16867;DHT22;8550;52.596;13.320;2022-10-31T21:03:25;13.60;99.90
16867;DHT22;8550;52.596;13.320;2022-10-31T21:08:30;13.60;99.90
16867;DHT22;8550;52.596;13.320;2022-10-31T21:13:34;13.60;99.90
16867;DHT22;8550;52.596;13.320;2022-10-31T21:18:37;13.60;99.90
16867;DHT22;8550;52.596;13.320;2022-10-31T21:23:41;13.60;99.90
16867;DHT22;8550;52.596;13.320;2022-10-31T21:28:46;13.60;99.90
16867;DHT22;8550;52.596;13.320;2022-10-31T21:33:48;13.70;99.90
16867;DHT22;8550;52.596;13.320;2022-10-31T21:38:53;13.70;99.90
16867;DHT22;8550;52.596;13.320;2022-10-31T21:43:55;13.70;99.90
16867;DHT22;8550;52.596;13.320;2022-10-31T21:48:57;13.80;99.90
16867;DHT22;8550;52.596;13.320;2022-10-31T21:54:01;13.80;99.90
16867;DHT22;8550;52.596;13.320;2022-10-31T21:59:21;13.80;99.90
16867;DHT22;8550;52.596;13.320;2022-10-31T22:04:24;13.80;99.90
16867;DHT22;8550;52.596;13.320;2022-10-31T22:09:27;13.80;99.90
16867;DHT22;8550;52.596;13.320;2022-10-31T22:14:32;13.80;99.90
16867;DHT22;8550;52.596;13.320;2022-10-31T22:19:35;13.80;99.90
16867;DHT22;8550;52.596;13.320;2022-10-31T22:24:39;13.70;99.90
16867;DHT22;8550;52.596;13.320;2022-10-31T22:29:41;13.80;99.90
16867;DHT22;8550;52.596;13.320;2022-10-31T22:34:43;13.80;99.90
16867;DHT22;8550;52.596;13.320;2022-10-31T22:39:46;13.90;99.90
16867;DHT22;8550;52.596;13.320;2022-10-31T22:44:48;13.90;99.90
16867;DHT22;8550;52.596;13.320;2022-10-31T22:49:49;13.90;99.90
16867;DHT22;8550;52.596;13.320;2022-10-31T22:54:53;13.90;99.90
16867;DHT22;8550;52.596;13.320;2022-10-31T22:59:54;13.90;99.90
16867;DHT22;8550;52.596;13.320;2022-10-31T23:04:56;13.80;99.90
16867;DHT22;8550;52.596;13.320;2022-10-31T23:09:59;13.80;99.90
16867;DHT22;8550;52.596;13.320;2022-10-31T23:15:01;13.80;99.90
16867;DHT22;8550;52.596;13.320;2022-10-31T23:20:03;13.80;99.90
16867;DHT22;8550;52.596;13.320;2022-10-31T23:25:08;13.80;99.90
16867;DHT22;8550;52.596;13.320;2022-10-31T23:30:10;13.70;99.90
16867;DHT22;8550;52.596;13.320;2022-10-31T23:35:11;13.70;99.90
16867;DHT22;8550;52.596;13.320;2022-10-31T23:40:16;13.70;99.90
16867;DHT22;8550;52.596;13.320;2022-10-31T23:45:17;13.70;99.90
16867;DHT22;8550;52.596;13.320;2022-10-31T23:50:19;13.60;99.90
16867;DHT22;8550;52.596;13.320;2022-10-31T23:55:22;13.60;99.90
